AVA232 MPTO-SKBG
Flight info
| Callsign | AVA232 |
|---|---|
| Flight time | 1h 33m |
| Altitude | 39000 |
| Route | REMAL1A REMAL DCT KUBEK UP790 EJA EJA2C |
| Aircraft | A20N/M-SDE2E3FGHIRWXY/LB1 |
Departure
| Time | 2026-05-07 16:49 |
|---|---|
| Airport | Tocumen International Airport (MPTO) |
Arrival
| Time | 2026-05-07 18:23 |
|---|---|
| Airport | Palonegro Airport (SKBG) |
| Time | Latitude | Longitude | Altitude | Speed | Heading |
|---|---|---|---|---|---|
| 2026-05-07 15:57 | 9.06444 | -79.38666 | 30 ft | 0 kts | 342° |
| 2026-05-07 16:37 | 9.06441 | -79.38665 | 30 ft | 2 kts | 342° |
| 2026-05-07 16:37 | 9.06429 | -79.38661 | 30 ft | 2 kts | 342° |
| 2026-05-07 16:37 | 9.06416 | -79.38657 | 30 ft | 2 kts | 342° |
| 2026-05-07 16:37 | 9.06404 | -79.38653 | 30 ft | 2 kts | 342° |
| 2026-05-07 16:38 | 9.06392 | -79.38648 | 30 ft | 2 kts | 322° |
| 2026-05-07 16:38 | 9.06382 | -79.38638 | 30 ft | 2 kts | 296° |
| 2026-05-07 16:38 | 9.06378 | -79.38627 | 30 ft | 2 kts | 273° |
| 2026-05-07 16:38 | 9.06378 | -79.38613 | 30 ft | 2 kts | 247° |
| 2026-05-07 16:39 | 9.06384 | -79.38603 | 30 ft | 0 kts | 220° |
| 2026-05-07 16:41 | 9.06373 | -79.38611 | 30 ft | 0 kts | 209° |
| 2026-05-07 16:42 | 9.06369 | -79.38613 | 30 ft | 4 kts | 208° |
| 2026-05-07 16:42 | 9.06310 | -79.38622 | 30 ft | 14 kts | 180° |
| 2026-05-07 16:43 | 9.06186 | -79.38637 | 30 ft | 22 kts | 202° |
| 2026-05-07 16:43 | 9.06037 | -79.38715 | 30 ft | 25 kts | 208° |
| 2026-05-07 16:43 | 9.05875 | -79.38805 | 30 ft | 28 kts | 209° |
| 2026-05-07 16:43 | 9.05710 | -79.38900 | 30 ft | 27 kts | 200° |
| 2026-05-07 16:44 | 9.05565 | -79.38985 | 30 ft | 19 kts | 212° |
| 2026-05-07 16:44 | 9.05441 | -79.39061 | 30 ft | 22 kts | 210° |
| 2026-05-07 16:44 | 9.05297 | -79.39142 | 30 ft | 25 kts | 206° |
| 2026-05-07 16:44 | 9.05136 | -79.39232 | 30 ft | 28 kts | 210° |
| 2026-05-07 16:45 | 9.04961 | -79.39333 | 30 ft | 29 kts | 209° |
| 2026-05-07 16:45 | 9.04871 | -79.39378 | 30 ft | 17 kts | 191° |
| 2026-05-07 16:45 | 9.04824 | -79.39353 | 30 ft | 1 kts | 114° |
| 2026-05-07 16:45 | 9.04814 | -79.39335 | 30 ft | 5 kts | 118° |
| 2026-05-07 16:46 | 9.04809 | -79.39327 | 30 ft | 0 kts | 123° |
| 2026-05-07 16:47 | 9.04809 | -79.39326 | 30 ft | 1 kts | 123° |
| 2026-05-07 16:47 | 9.04798 | -79.39310 | 31 ft | 5 kts | 123° |
| 2026-05-07 16:47 | 9.04782 | -79.39270 | 31 ft | 8 kts | 98° |
| 2026-05-07 16:48 | 9.04819 | -79.39228 | 31 ft | 4 kts | 26° |
| 2026-05-07 16:48 | 9.04833 | -79.39220 | 31 ft | 14 kts | 27° |
| 2026-05-07 16:48 | 9.05134 | -79.39050 | 30 ft | 84 kts | 29° |
| 2026-05-07 16:48 | 9.05821 | -79.38659 | 31 ft | 139 kts | 29° |
| 2026-05-07 16:49 | 9.06737 | -79.38139 | 360 ft | 154 kts | 29° |
| 2026-05-07 16:49 | 9.07747 | -79.37557 | 676 ft | 179 kts | 29° |
| 2026-05-07 16:49 | 9.08867 | -79.36902 | 1152 ft | 188 kts | 28° |
| 2026-05-07 16:49 | 9.09856 | -79.36136 | 1984 ft | 178 kts | 54° |
| 2026-05-07 16:50 | 9.10235 | -79.34905 | 2392 ft | 194 kts | 90° |
| 2026-05-07 16:50 | 9.09966 | -79.33484 | 2718 ft | 217 kts | 106° |
| 2026-05-07 16:50 | 9.09444 | -79.31976 | 3104 ft | 239 kts | 108° |
| 2026-05-07 16:50 | 9.08881 | -79.30318 | 3775 ft | 253 kts | 105° |
| 2026-05-07 16:51 | 9.08377 | -79.28609 | 4805 ft | 255 kts | 103° |
| 2026-05-07 16:51 | 9.07917 | -79.26859 | 5755 ft | 260 kts | 102° |
| 2026-05-07 16:51 | 9.07480 | -79.25027 | 5978 ft | 262 kts | 101° |
| 2026-05-07 16:51 | 9.07084 | -79.23227 | 6153 ft | 262 kts | 100° |
| 2026-05-07 16:52 | 9.06718 | -79.21466 | 6303 ft | 263 kts | 100° |
| 2026-05-07 16:52 | 9.06332 | -79.19627 | 6446 ft | 262 kts | 100° |
| 2026-05-07 16:52 | 9.05948 | -79.17818 | 6571 ft | 263 kts | 99° |
| 2026-05-07 16:52 | 9.05725 | -79.15981 | 6692 ft | 263 kts | 89° |
| 2026-05-07 16:53 | 9.05729 | -79.14086 | 6853 ft | 276 kts | 88° |
| 2026-05-07 16:53 | 9.05742 | -79.12134 | 7669 ft | 277 kts | 89° |
| 2026-05-07 16:53 | 9.05739 | -79.10215 | 8605 ft | 278 kts | 89° |
| 2026-05-07 16:53 | 9.05715 | -79.08195 | 9512 ft | 282 kts | 90° |
| 2026-05-07 16:54 | 9.05675 | -79.06192 | 10359 ft | 284 kts | 91° |
| 2026-05-07 16:54 | 9.05625 | -79.04194 | 11198 ft | 285 kts | 91° |
| 2026-05-07 16:54 | 9.05570 | -79.02177 | 12064 ft | 286 kts | 91° |
| 2026-05-07 16:54 | 9.05514 | -79.00158 | 12904 ft | 288 kts | 91° |
| 2026-05-07 16:55 | 9.05459 | -78.98121 | 13730 ft | 290 kts | 91° |
| 2026-05-07 16:55 | 9.05406 | -78.96103 | 14420 ft | 293 kts | 91° |
| 2026-05-07 16:55 | 9.05354 | -78.94038 | 15081 ft | 297 kts | 90° |
| 2026-05-07 16:55 | 9.05302 | -78.91917 | 15748 ft | 301 kts | 90° |
| 2026-05-07 16:56 | 9.05251 | -78.89787 | 16410 ft | 304 kts | 90° |
| 2026-05-07 16:56 | 9.05199 | -78.87659 | 17073 ft | 308 kts | 90° |
| 2026-05-07 16:56 | 9.04921 | -78.83338 | 18300 ft | 317 kts | 102° |
| 2026-05-07 16:57 | 9.04186 | -78.81224 | 18845 ft | 322 kts | 114° |
| 2026-05-07 16:57 | 9.02995 | -78.79264 | 19345 ft | 331 kts | 121° |
| 2026-05-07 16:57 | 9.01664 | -78.77292 | 19495 ft | 348 kts | 121° |
| 2026-05-07 16:57 | 9.00271 | -78.75199 | 19649 ft | 365 kts | 121° |
| 2026-05-07 16:58 | 8.98854 | -78.73012 | 19773 ft | 380 kts | 120° |
| 2026-05-07 16:58 | 8.97409 | -78.70746 | 20144 ft | 386 kts | 120° |
| 2026-05-07 16:58 | 8.95954 | -78.68446 | 20637 ft | 389 kts | 119° |
| 2026-05-07 16:58 | 8.94484 | -78.66112 | 21108 ft | 393 kts | 119° |
| 2026-05-07 16:59 | 8.93010 | -78.63769 | 21556 ft | 397 kts | 119° |
| 2026-05-07 16:59 | 8.91554 | -78.61457 | 22004 ft | 400 kts | 120° |
| 2026-05-07 16:59 | 8.90014 | -78.59026 | 22482 ft | 404 kts | 119° |
| 2026-05-07 16:59 | 8.88491 | -78.56613 | 22945 ft | 408 kts | 119° |
| 2026-05-07 17:00 | 8.86957 | -78.54179 | 23369 ft | 411 kts | 119° |
| 2026-05-07 17:00 | 8.85431 | -78.51764 | 23759 ft | 415 kts | 120° |
| 2026-05-07 17:00 | 8.83865 | -78.49289 | 24151 ft | 416 kts | 119° |
| 2026-05-07 17:00 | 8.82299 | -78.46813 | 24487 ft | 420 kts | 119° |
| 2026-05-07 17:01 | 8.80713 | -78.44308 | 24813 ft | 424 kts | 120° |
| 2026-05-07 17:01 | 8.79120 | -78.41792 | 25161 ft | 427 kts | 120° |
| 2026-05-07 17:01 | 8.77515 | -78.39259 | 25533 ft | 430 kts | 120° |
| 2026-05-07 17:01 | 8.75890 | -78.36696 | 25867 ft | 433 kts | 120° |
| 2026-05-07 17:02 | 8.74260 | -78.34128 | 26210 ft | 435 kts | 120° |
| 2026-05-07 17:02 | 8.72621 | -78.31546 | 26548 ft | 438 kts | 120° |
| 2026-05-07 17:02 | 8.70963 | -78.28937 | 26869 ft | 441 kts | 120° |
| 2026-05-07 17:02 | 8.69300 | -78.26320 | 27195 ft | 443 kts | 120° |
| 2026-05-07 17:03 | 8.67623 | -78.23682 | 27509 ft | 446 kts | 120° |
| 2026-05-07 17:03 | 8.65953 | -78.21062 | 27821 ft | 448 kts | 120° |
| 2026-05-07 17:03 | 8.64256 | -78.18397 | 28108 ft | 451 kts | 120° |
| 2026-05-07 17:03 | 8.62557 | -78.15724 | 28405 ft | 454 kts | 120° |
| 2026-05-07 17:04 | 8.60851 | -78.13042 | 28696 ft | 456 kts | 120° |
| 2026-05-07 17:04 | 8.59121 | -78.10324 | 29001 ft | 459 kts | 120° |
| 2026-05-07 17:04 | 8.57387 | -78.07601 | 29271 ft | 461 kts | 120° |
| 2026-05-07 17:04 | 8.55645 | -78.04867 | 29548 ft | 464 kts | 120° |
| 2026-05-07 17:05 | 8.53900 | -78.02130 | 29821 ft | 466 kts | 120° |
| 2026-05-07 17:05 | 8.52138 | -77.99369 | 30092 ft | 469 kts | 120° |
| 2026-05-07 17:05 | 8.50370 | -77.96599 | 30325 ft | 471 kts | 120° |
| 2026-05-07 17:05 | 8.48589 | -77.93811 | 30585 ft | 473 kts | 120° |
| 2026-05-07 17:06 | 8.46798 | -77.91002 | 30844 ft | 475 kts | 120° |
| 2026-05-07 17:06 | 8.45012 | -77.88198 | 31122 ft | 476 kts | 120° |
| 2026-05-07 17:06 | 8.43194 | -77.85347 | 31470 ft | 475 kts | 120° |
| 2026-05-07 17:06 | 8.41405 | -77.82546 | 31813 ft | 475 kts | 120° |
| 2026-05-07 17:07 | 8.39607 | -77.79732 | 32156 ft | 474 kts | 120° |
| 2026-05-07 17:07 | 8.37815 | -77.76926 | 32491 ft | 473 kts | 120° |
| 2026-05-07 17:07 | 8.36030 | -77.74131 | 32818 ft | 473 kts | 120° |
| 2026-05-07 17:07 | 8.34247 | -77.71339 | 33142 ft | 472 kts | 120° |
| 2026-05-07 17:08 | 8.32465 | -77.68551 | 33454 ft | 472 kts | 121° |
| 2026-05-07 17:08 | 8.30684 | -77.65766 | 33766 ft | 471 kts | 121° |
| 2026-05-07 17:08 | 8.28908 | -77.62989 | 34040 ft | 471 kts | 121° |
| 2026-05-07 17:08 | 8.27130 | -77.60209 | 34287 ft | 470 kts | 121° |
| 2026-05-07 17:09 | 8.25357 | -77.57438 | 34536 ft | 470 kts | 121° |
| 2026-05-07 17:09 | 8.23582 | -77.54665 | 34782 ft | 469 kts | 121° |
| 2026-05-07 17:09 | 8.21810 | -77.51897 | 35024 ft | 469 kts | 121° |
| 2026-05-07 17:09 | 8.20042 | -77.49138 | 35268 ft | 468 kts | 121° |
| 2026-05-07 17:10 | 8.18279 | -77.46384 | 35532 ft | 467 kts | 121° |
| 2026-05-07 17:10 | 8.17108 | -77.44556 | 35716 ft | 467 kts | 121° |
| 2026-05-07 17:10 | 8.14771 | -77.40915 | 36066 ft | 465 kts | 121° |
| 2026-05-07 17:10 | 8.13015 | -77.38173 | 36323 ft | 464 kts | 121° |
| 2026-05-07 17:11 | 8.11269 | -77.35444 | 36575 ft | 463 kts | 121° |
| 2026-05-07 17:11 | 8.09524 | -77.32717 | 36829 ft | 463 kts | 121° |
| 2026-05-07 17:11 | 8.07765 | -77.29970 | 37071 ft | 462 kts | 121° |
| 2026-05-07 17:11 | 8.06585 | -77.28129 | 37226 ft | 461 kts | 121° |
| 2026-05-07 17:12 | 8.04862 | -77.25438 | 37464 ft | 461 kts | 120° |
| 2026-05-07 17:12 | 8.03272 | -77.22641 | 37700 ft | 459 kts | 114° |
| 2026-05-07 17:12 | 8.01992 | -77.19695 | 37881 ft | 459 kts | 108° |
| 2026-05-07 17:12 | 8.01028 | -77.16630 | 38069 ft | 458 kts | 103° |
| 2026-05-07 17:13 | 8.00188 | -77.13531 | 38250 ft | 458 kts | 103° |
| 2026-05-07 17:13 | 7.99345 | -77.10420 | 38456 ft | 457 kts | 103° |
| 2026-05-07 17:13 | 7.98499 | -77.07366 | 38635 ft | 457 kts | 104° |
| 2026-05-07 17:13 | 7.97625 | -77.04284 | 38775 ft | 456 kts | 104° |
| 2026-05-07 17:14 | 7.96738 | -77.01205 | 38902 ft | 456 kts | 104° |
| 2026-05-07 17:14 | 7.95848 | -76.98140 | 38929 ft | 456 kts | 105° |
| 2026-05-07 17:14 | 7.94064 | -76.92015 | 38931 ft | 455 kts | 105° |
| 2026-05-07 17:15 | 7.92278 | -76.85886 | 38935 ft | 455 kts | 105° |
| 2026-05-07 17:15 | 7.90495 | -76.79755 | 38936 ft | 455 kts | 105° |
| 2026-05-07 17:16 | 7.88727 | -76.73664 | 38936 ft | 455 kts | 105° |
| 2026-05-07 17:16 | 7.86951 | -76.67543 | 38935 ft | 455 kts | 105° |
| 2026-05-07 17:17 | 7.85174 | -76.61414 | 38936 ft | 455 kts | 105° |
| 2026-05-07 17:17 | 7.83395 | -76.55285 | 38946 ft | 455 kts | 105° |
| 2026-05-07 17:18 | 7.81615 | -76.49152 | 38944 ft | 455 kts | 105° |
| 2026-05-07 17:18 | 7.79837 | -76.43031 | 38949 ft | 455 kts | 105° |
| 2026-05-07 17:19 | 7.78071 | -76.36950 | 38948 ft | 455 kts | 105° |
| 2026-05-07 17:19 | 7.76289 | -76.30817 | 38949 ft | 454 kts | 105° |
| 2026-05-07 17:20 | 7.74514 | -76.24710 | 38955 ft | 454 kts | 105° |
| 2026-05-07 17:20 | 7.72734 | -76.18586 | 38947 ft | 454 kts | 105° |
| 2026-05-07 17:21 | 7.70961 | -76.12487 | 38935 ft | 454 kts | 105° |
| 2026-05-07 17:21 | 7.69182 | -76.06373 | 38935 ft | 454 kts | 105° |
| 2026-05-07 17:22 | 7.67407 | -76.00272 | 38929 ft | 454 kts | 105° |
| 2026-05-07 17:22 | 7.65633 | -75.94178 | 38933 ft | 455 kts | 105° |
| 2026-05-07 17:23 | 7.63850 | -75.88059 | 38935 ft | 455 kts | 105° |
| 2026-05-07 17:23 | 7.62062 | -75.81923 | 38937 ft | 456 kts | 105° |
| 2026-05-07 17:24 | 7.60271 | -75.75784 | 38943 ft | 457 kts | 105° |
| 2026-05-07 17:24 | 7.58476 | -75.69633 | 38949 ft | 457 kts | 105° |
| 2026-05-07 17:25 | 7.56679 | -75.63475 | 38952 ft | 458 kts | 105° |
| 2026-05-07 17:25 | 7.54874 | -75.57296 | 38955 ft | 459 kts | 105° |
| 2026-05-07 17:26 | 7.53071 | -75.51127 | 38954 ft | 459 kts | 105° |
| 2026-05-07 17:26 | 7.51288 | -75.45032 | 38945 ft | 457 kts | 105° |
| 2026-05-07 17:27 | 7.49488 | -75.38874 | 38941 ft | 458 kts | 105° |
| 2026-05-07 17:27 | 7.47682 | -75.32695 | 38939 ft | 459 kts | 105° |
| 2026-05-07 17:28 | 7.45877 | -75.26526 | 38939 ft | 459 kts | 105° |
| 2026-05-07 17:28 | 7.44065 | -75.20334 | 38939 ft | 460 kts | 105° |
| 2026-05-07 17:29 | 7.42254 | -75.14149 | 38935 ft | 461 kts | 106° |
| 2026-05-07 17:29 | 7.40433 | -75.07937 | 38937 ft | 461 kts | 106° |
| 2026-05-07 17:30 | 7.38594 | -75.01697 | 38914 ft | 462 kts | 105° |
| 2026-05-07 17:30 | 7.36760 | -74.95477 | 38918 ft | 463 kts | 105° |
| 2026-05-07 17:31 | 7.34942 | -74.89291 | 38927 ft | 463 kts | 105° |
| 2026-05-07 17:31 | 7.33114 | -74.83065 | 38924 ft | 464 kts | 105° |
| 2026-05-07 17:32 | 7.31282 | -74.76820 | 38932 ft | 464 kts | 105° |
| 2026-05-07 17:32 | 7.29772 | -74.71675 | 38940 ft | 465 kts | 105° |
| 2026-05-07 17:33 | 7.27611 | -74.64326 | 38936 ft | 465 kts | 105° |
| 2026-05-07 17:33 | 7.25769 | -74.58067 | 38935 ft | 466 kts | 105° |
| 2026-05-07 17:34 | 7.23937 | -74.51848 | 38936 ft | 466 kts | 105° |
| 2026-05-07 17:34 | 7.22107 | -74.45639 | 38695 ft | 466 kts | 105° |
| 2026-05-07 17:35 | 7.21173 | -74.42470 | 38161 ft | 467 kts | 105° |
| 2026-05-07 17:35 | 7.20244 | -74.39317 | 37388 ft | 469 kts | 105° |
| 2026-05-07 17:35 | 7.19312 | -74.36148 | 36544 ft | 472 kts | 106° |
| 2026-05-07 17:35 | 7.18379 | -74.32974 | 35809 ft | 473 kts | 106° |
| 2026-05-07 17:36 | 7.17444 | -74.29790 | 35007 ft | 476 kts | 106° |
| 2026-05-07 17:36 | 7.16509 | -74.26611 | 34219 ft | 478 kts | 107° |
| 2026-05-07 17:36 | 7.15562 | -74.23390 | 33339 ft | 481 kts | 107° |
| 2026-05-07 17:36 | 7.14606 | -74.20144 | 32476 ft | 483 kts | 107° |
| 2026-05-07 17:37 | 7.13649 | -74.16900 | 31616 ft | 484 kts | 107° |
| 2026-05-07 17:37 | 7.12690 | -74.13650 | 30854 ft | 483 kts | 107° |
| 2026-05-07 17:37 | 7.11730 | -74.10409 | 30090 ft | 482 kts | 107° |
| 2026-05-07 17:37 | 7.10778 | -74.07202 | 29562 ft | 474 kts | 107° |
| 2026-05-07 17:38 | 7.09839 | -74.04045 | 29030 ft | 466 kts | 106° |
| 2026-05-07 17:38 | 7.08919 | -74.00950 | 28459 ft | 460 kts | 106° |
| 2026-05-07 17:38 | 7.08005 | -73.97877 | 27893 ft | 453 kts | 106° |
| 2026-05-07 17:38 | 7.07110 | -73.94871 | 27326 ft | 448 kts | 106° |
| 2026-05-07 17:39 | 7.06222 | -73.91886 | 26739 ft | 443 kts | 106° |
| 2026-05-07 17:39 | 7.05346 | -73.88946 | 26184 ft | 438 kts | 106° |
| 2026-05-07 17:39 | 7.04473 | -73.86012 | 25611 ft | 434 kts | 105° |
| 2026-05-07 17:39 | 7.03602 | -73.83084 | 25039 ft | 430 kts | 105° |
| 2026-05-07 17:40 | 7.02778 | -73.80233 | 24478 ft | 426 kts | 103° |
| 2026-05-07 17:40 | 7.02128 | -73.77336 | 23901 ft | 422 kts | 101° |
| 2026-05-07 17:40 | 7.01529 | -73.74436 | 23289 ft | 419 kts | 100° |
| 2026-05-07 17:40 | 7.00959 | -73.71597 | 22752 ft | 412 kts | 100° |
| 2026-05-07 17:41 | 7.00400 | -73.68780 | 22224 ft | 406 kts | 100° |
| 2026-05-07 17:41 | 6.99854 | -73.66031 | 21741 ft | 400 kts | 100° |
| 2026-05-07 17:41 | 6.99302 | -73.63268 | 21221 ft | 394 kts | 100° |
| 2026-05-07 17:41 | 6.98766 | -73.60592 | 20724 ft | 390 kts | 100° |
| 2026-05-07 17:42 | 6.98231 | -73.57932 | 20227 ft | 385 kts | 100° |
| 2026-05-07 17:42 | 6.97704 | -73.55325 | 19677 ft | 383 kts | 101° |
| 2026-05-07 17:42 | 6.97179 | -73.52732 | 19233 ft | 378 kts | 101° |
| 2026-05-07 17:42 | 6.96646 | -73.50102 | 18721 ft | 375 kts | 101° |
| 2026-05-07 17:43 | 6.96124 | -73.47524 | 18179 ft | 374 kts | 101° |
| 2026-05-07 17:43 | 6.95606 | -73.44968 | 17852 ft | 379 kts | 101° |
| 2026-05-07 17:43 | 6.95076 | -73.42360 | 17612 ft | 380 kts | 101° |
| 2026-05-07 17:43 | 6.94541 | -73.39725 | 17081 ft | 383 kts | 101° |
| 2026-05-07 17:44 | 6.94003 | -73.37088 | 16532 ft | 380 kts | 101° |
| 2026-05-07 17:44 | 6.93475 | -73.34502 | 15932 ft | 378 kts | 101° |
| 2026-05-07 17:44 | 6.92910 | -73.31968 | 15401 ft | 373 kts | 107° |
| 2026-05-07 17:44 | 6.91753 | -73.29638 | 14883 ft | 369 kts | 125° |
| 2026-05-07 17:45 | 6.90017 | -73.27766 | 14323 ft | 368 kts | 140° |
| 2026-05-07 17:45 | 6.87888 | -73.26398 | 13780 ft | 359 kts | 153° |
| 2026-05-07 17:45 | 6.85573 | -73.25603 | 13264 ft | 349 kts | 166° |
| 2026-05-07 17:45 | 6.83248 | -73.25084 | 12887 ft | 342 kts | 162° |
| 2026-05-07 17:46 | 6.81028 | -73.24277 | 12492 ft | 342 kts | 153° |
| 2026-05-07 17:46 | 6.78924 | -73.23112 | 12172 ft | 344 kts | 144° |
| 2026-05-07 17:46 | 6.77026 | -73.21656 | 11579 ft | 346 kts | 136° |
| 2026-05-07 17:46 | 6.75375 | -73.19913 | 11273 ft | 340 kts | 127° |
| 2026-05-07 17:47 | 6.74005 | -73.17979 | 11102 ft | 343 kts | 120° |
| 2026-05-07 17:47 | 6.72889 | -73.15841 | 10977 ft | 342 kts | 114° |
| 2026-05-07 17:47 | 6.72107 | -73.13616 | 10860 ft | 340 kts | 99° |
| 2026-05-07 17:47 | 6.72095 | -73.11248 | 10757 ft | 340 kts | 77° |
| 2026-05-07 17:48 | 6.73006 | -73.09078 | 10623 ft | 342 kts | 54° |
| 2026-05-07 17:48 | 6.74719 | -73.07417 | 10491 ft | 339 kts | 32° |
| 2026-05-07 17:48 | 6.76812 | -73.06476 | 10376 ft | 327 kts | 16° |
| 2026-05-07 17:48 | 6.79016 | -73.06166 | 10234 ft | 311 kts | 360° |
| 2026-05-07 17:49 | 6.81094 | -73.06457 | 10006 ft | 298 kts | 343° |
| 2026-05-07 17:49 | 6.82369 | -73.06934 | 9823 ft | 290 kts | 338° |
| 2026-05-07 17:49 | 6.84246 | -73.07713 | 9514 ft | 280 kts | 339° |
| 2026-05-07 17:49 | 6.86031 | -73.08433 | 9220 ft | 270 kts | 340° |
| 2026-05-07 17:50 | 6.87746 | -73.09099 | 8822 ft | 264 kts | 340° |
| 2026-05-07 17:50 | 6.89460 | -73.09739 | 8346 ft | 258 kts | 341° |
| 2026-05-07 17:50 | 6.91117 | -73.10351 | 7923 ft | 254 kts | 340° |
| 2026-05-07 17:50 | 6.92758 | -73.10970 | 7582 ft | 246 kts | 340° |
| 2026-05-07 17:51 | 6.94324 | -73.11559 | 7292 ft | 236 kts | 340° |
| 2026-05-07 17:51 | 6.95812 | -73.12120 | 7059 ft | 222 kts | 340° |
| 2026-05-07 17:51 | 6.97219 | -73.12651 | 6775 ft | 208 kts | 340° |
| 2026-05-07 17:51 | 6.98531 | -73.13146 | 6523 ft | 196 kts | 340° |
| 2026-05-07 17:52 | 6.99822 | -73.13633 | 6276 ft | 199 kts | 340° |
| 2026-05-07 17:52 | 7.01120 | -73.14123 | 6024 ft | 198 kts | 340° |
| 2026-05-07 17:52 | 7.02406 | -73.14607 | 5775 ft | 196 kts | 340° |
| 2026-05-07 17:52 | 7.03677 | -73.15087 | 5519 ft | 193 kts | 340° |
| 2026-05-07 17:53 | 7.04908 | -73.15552 | 5283 ft | 183 kts | 340° |
| 2026-05-07 17:53 | 7.06053 | -73.15984 | 5048 ft | 167 kts | 340° |
| 2026-05-07 17:53 | 7.07098 | -73.16379 | 4864 ft | 152 kts | 340° |
| 2026-05-07 17:53 | 7.08045 | -73.16735 | 4674 ft | 143 kts | 340° |
| 2026-05-07 17:54 | 7.08990 | -73.17092 | 4481 ft | 146 kts | 340° |
| 2026-05-07 17:54 | 7.09930 | -73.17447 | 4284 ft | 145 kts | 340° |
| 2026-05-07 17:54 | 7.10867 | -73.17814 | 4081 ft | 144 kts | 340° |
| 2026-05-07 17:54 | 7.11806 | -73.18157 | 3876 ft | 143 kts | 340° |
| 2026-05-07 17:55 | 7.12831 | -73.18531 | 4197 ft | 169 kts | 340° |
| 2026-05-07 17:55 | 7.14022 | -73.18985 | 4690 ft | 200 kts | 341° |
| 2026-05-07 17:55 | 7.15429 | -73.19488 | 5263 ft | 230 kts | 342° |
| 2026-05-07 17:55 | 7.17082 | -73.19996 | 5690 ft | 252 kts | 350° |
| 2026-05-07 17:56 | 7.18790 | -73.20295 | 5512 ft | 244 kts | 347° |
| 2026-05-07 17:56 | 7.20336 | -73.20707 | 5579 ft | 223 kts | 343° |
| 2026-05-07 17:56 | 7.21866 | -73.21143 | 5895 ft | 227 kts | 343° |
| 2026-05-07 17:56 | 7.23384 | -73.21581 | 6379 ft | 228 kts | 343° |
| 2026-05-07 17:57 | 7.24924 | -73.22028 | 6840 ft | 229 kts | 343° |
| 2026-05-07 17:57 | 7.25929 | -73.22380 | 7147 ft | 231 kts | 333° |
| 2026-05-07 17:57 | 7.27407 | -73.23908 | 7761 ft | 235 kts | 291° |
| 2026-05-07 17:57 | 7.27615 | -73.25547 | 8233 ft | 240 kts | 259° |
| 2026-05-07 17:58 | 7.26971 | -73.27068 | 8729 ft | 243 kts | 234° |
| 2026-05-07 17:58 | 7.25880 | -73.28386 | 9221 ft | 246 kts | 226° |
| 2026-05-07 17:58 | 7.24703 | -73.29643 | 9722 ft | 248 kts | 226° |
| 2026-05-07 17:58 | 7.23550 | -73.30917 | 10190 ft | 250 kts | 228° |
| 2026-05-07 17:59 | 7.22386 | -73.32282 | 10657 ft | 253 kts | 230° |
| 2026-05-07 17:59 | 7.21281 | -73.33668 | 11125 ft | 255 kts | 232° |
| 2026-05-07 17:59 | 7.20201 | -73.35076 | 11584 ft | 259 kts | 232° |
| 2026-05-07 17:59 | 7.19105 | -73.36528 | 12070 ft | 263 kts | 233° |
| 2026-05-07 18:00 | 7.17985 | -73.38017 | 12546 ft | 264 kts | 232° |
| 2026-05-07 18:00 | 7.16875 | -73.39484 | 13029 ft | 267 kts | 232° |
| 2026-05-07 18:00 | 7.15739 | -73.40982 | 13528 ft | 270 kts | 232° |
| 2026-05-07 18:00 | 7.14590 | -73.42494 | 13999 ft | 273 kts | 232° |
| 2026-05-07 18:01 | 7.13471 | -73.44037 | 14439 ft | 274 kts | 234° |
| 2026-05-07 18:01 | 7.12380 | -73.45586 | 14750 ft | 275 kts | 232° |
| 2026-05-07 18:01 | 7.11182 | -73.47100 | 14852 ft | 275 kts | 232° |
| 2026-05-07 18:01 | 7.09990 | -73.48643 | 14872 ft | 275 kts | 232° |
| 2026-05-07 18:02 | 7.07608 | -73.51657 | 14841 ft | 275 kts | 230° |
| 2026-05-07 18:02 | 7.06624 | -73.53271 | 14836 ft | 276 kts | 253° |
| 2026-05-07 18:02 | 7.06466 | -73.55170 | 14836 ft | 277 kts | 282° |
| 2026-05-07 18:03 | 7.07224 | -73.56928 | 14828 ft | 273 kts | 312° |
| 2026-05-07 18:03 | 7.08703 | -73.58085 | 14825 ft | 268 kts | 342° |
| 2026-05-07 18:03 | 7.10512 | -73.58369 | 14829 ft | 262 kts | 10° |
| 2026-05-07 18:03 | 7.12242 | -73.57863 | 14829 ft | 258 kts | 31° |
| 2026-05-07 18:04 | 7.13665 | -73.56766 | 14825 ft | 254 kts | 52° |
| 2026-05-07 18:04 | 7.14707 | -73.55350 | 14827 ft | 254 kts | 56° |
| 2026-05-07 18:04 | 7.15758 | -73.53908 | 14828 ft | 254 kts | 54° |
| 2026-05-07 18:04 | 7.16831 | -73.52493 | 14827 ft | 254 kts | 53° |
| 2026-05-07 18:05 | 7.17919 | -73.51094 | 14850 ft | 254 kts | 53° |
| 2026-05-07 18:05 | 7.18956 | -73.49656 | 14852 ft | 253 kts | 64° |
| 2026-05-07 18:05 | 7.19427 | -73.47967 | 14868 ft | 252 kts | 89° |
| 2026-05-07 18:05 | 7.19099 | -73.46245 | 14887 ft | 254 kts | 112° |
| 2026-05-07 18:06 | 7.18185 | -73.44724 | 14885 ft | 256 kts | 134° |
| 2026-05-07 18:06 | 7.16671 | -73.43781 | 14890 ft | 262 kts | 162° |
| 2026-05-07 18:06 | 7.14844 | -73.43670 | 14894 ft | 268 kts | 190° |
| 2026-05-07 18:06 | 7.13155 | -73.44400 | 14897 ft | 272 kts | 210° |
| 2026-05-07 18:07 | 7.11561 | -73.45449 | 14886 ft | 272 kts | 211° |
| 2026-05-07 18:07 | 7.09984 | -73.46511 | 14877 ft | 272 kts | 211° |
| 2026-05-07 18:07 | 7.08414 | -73.47569 | 14870 ft | 271 kts | 211° |
| 2026-05-07 18:07 | 7.06845 | -73.48630 | 14865 ft | 271 kts | 211° |
| 2026-05-07 18:08 | 7.05213 | -73.49543 | 14833 ft | 267 kts | 193° |
| 2026-05-07 18:08 | 7.03397 | -73.49646 | 14840 ft | 262 kts | 163° |
| 2026-05-07 18:08 | 7.01788 | -73.48857 | 14843 ft | 256 kts | 134° |
| 2026-05-07 18:08 | 7.00711 | -73.47455 | 14867 ft | 255 kts | 120° |
| 2026-05-07 18:09 | 6.99758 | -73.45950 | 14876 ft | 254 kts | 119° |
| 2026-05-07 18:09 | 6.99075 | -73.44287 | 14882 ft | 254 kts | 106° |
| 2026-05-07 18:09 | 6.98577 | -73.42603 | 14831 ft | 254 kts | 105° |
| 2026-05-07 18:09 | 6.98091 | -73.40883 | 14552 ft | 254 kts | 105° |
| 2026-05-07 18:10 | 6.97602 | -73.39187 | 14238 ft | 252 kts | 107° |
| 2026-05-07 18:10 | 6.96744 | -73.37678 | 13993 ft | 248 kts | 135° |
| 2026-05-07 18:10 | 6.95375 | -73.36589 | 13923 ft | 253 kts | 141° |
| 2026-05-07 18:10 | 6.93949 | -73.35543 | 13910 ft | 252 kts | 141° |
| 2026-05-07 18:11 | 6.92547 | -73.34524 | 13906 ft | 251 kts | 141° |
| 2026-05-07 18:11 | 6.91586 | -73.33830 | 13911 ft | 252 kts | 141° |
| 2026-05-07 18:11 | 6.89700 | -73.32459 | 13906 ft | 252 kts | 141° |
| 2026-05-07 18:11 | 6.88280 | -73.31427 | 13906 ft | 252 kts | 141° |
| 2026-05-07 18:12 | 6.86858 | -73.30396 | 13905 ft | 252 kts | 141° |
| 2026-05-07 18:12 | 6.85407 | -73.29351 | 13903 ft | 253 kts | 141° |
| 2026-05-07 18:12 | 6.83976 | -73.28319 | 13899 ft | 253 kts | 141° |
| 2026-05-07 18:12 | 6.82550 | -73.27289 | 13897 ft | 252 kts | 141° |
| 2026-05-07 18:13 | 6.81140 | -73.26270 | 13864 ft | 254 kts | 141° |
| 2026-05-07 18:13 | 6.79681 | -73.25216 | 13565 ft | 255 kts | 141° |
| 2026-05-07 18:13 | 6.78237 | -73.24170 | 13113 ft | 256 kts | 141° |
| 2026-05-07 18:13 | 6.76789 | -73.23119 | 12663 ft | 257 kts | 141° |
| 2026-05-07 18:14 | 6.75378 | -73.22014 | 12228 ft | 255 kts | 131° |
| 2026-05-07 18:14 | 6.74461 | -73.20551 | 11743 ft | 252 kts | 104° |
| 2026-05-07 18:14 | 6.74384 | -73.18817 | 11245 ft | 247 kts | 75° |
| 2026-05-07 18:14 | 6.75168 | -73.17313 | 10757 ft | 246 kts | 46° |
| 2026-05-07 18:15 | 6.76565 | -73.16316 | 10267 ft | 246 kts | 30° |
| 2026-05-07 18:15 | 6.77550 | -73.15766 | 9959 ft | 246 kts | 30° |
| 2026-05-07 18:15 | 6.79066 | -73.14919 | 9443 ft | 245 kts | 30° |
| 2026-05-07 18:15 | 6.80529 | -73.14071 | 8928 ft | 245 kts | 31° |
| 2026-05-07 18:16 | 6.81991 | -73.13195 | 8420 ft | 244 kts | 32° |
| 2026-05-07 18:16 | 6.83432 | -73.12317 | 8054 ft | 237 kts | 32° |
| 2026-05-07 18:16 | 6.84792 | -73.11483 | 7964 ft | 217 kts | 32° |
| 2026-05-07 18:16 | 6.86064 | -73.10701 | 7930 ft | 218 kts | 32° |
| 2026-05-07 18:17 | 6.87354 | -73.09910 | 7932 ft | 216 kts | 31° |
| 2026-05-07 18:17 | 6.88782 | -73.09553 | 7935 ft | 203 kts | 354° |
| 2026-05-07 18:17 | 6.90077 | -73.09893 | 7936 ft | 186 kts | 340° |
| 2026-05-07 18:17 | 6.91274 | -73.10388 | 7855 ft | 187 kts | 339° |
| 2026-05-07 18:18 | 6.92488 | -73.10866 | 7631 ft | 185 kts | 340° |
| 2026-05-07 18:18 | 6.93694 | -73.11318 | 7412 ft | 184 kts | 340° |
| 2026-05-07 18:18 | 6.94870 | -73.11762 | 7191 ft | 182 kts | 340° |
| 2026-05-07 18:18 | 6.96071 | -73.12214 | 6968 ft | 181 kts | 340° |
| 2026-05-07 18:19 | 6.97247 | -73.12658 | 6752 ft | 180 kts | 340° |
| 2026-05-07 18:19 | 6.98419 | -73.13100 | 6529 ft | 179 kts | 340° |
| 2026-05-07 18:19 | 6.99581 | -73.13539 | 6310 ft | 177 kts | 340° |
| 2026-05-07 18:19 | 7.00736 | -73.13975 | 6082 ft | 177 kts | 340° |
| 2026-05-07 18:20 | 7.01880 | -73.14407 | 5858 ft | 177 kts | 340° |
| 2026-05-07 18:20 | 7.03031 | -73.14841 | 5633 ft | 176 kts | 340° |
| 2026-05-07 18:20 | 7.04160 | -73.15268 | 5414 ft | 170 kts | 340° |
| 2026-05-07 18:20 | 7.05224 | -73.15669 | 5201 ft | 158 kts | 340° |
| 2026-05-07 18:21 | 7.06218 | -73.16044 | 5003 ft | 146 kts | 340° |
| 2026-05-07 18:21 | 7.07164 | -73.16401 | 4837 ft | 146 kts | 339° |
| 2026-05-07 18:21 | 7.08114 | -73.16761 | 4606 ft | 145 kts | 339° |
| 2026-05-07 18:21 | 7.09051 | -73.17129 | 4408 ft | 144 kts | 339° |
| 2026-05-07 18:22 | 7.09988 | -73.17495 | 4193 ft | 143 kts | 339° |
| 2026-05-07 18:22 | 7.10604 | -73.17735 | 4101 ft | 144 kts | 340° |
| 2026-05-07 18:22 | 7.11871 | -73.18186 | 3869 ft | 139 kts | 340° |
| 2026-05-07 18:22 | 7.12672 | -73.18482 | 3901 ft | 101 kts | 339° |
| 2026-05-07 18:23 | 7.13150 | -73.18661 | 3918 ft | 45 kts | 338° |
| 2026-05-07 18:23 | 7.13268 | -73.18709 | 3916 ft | 0 kts | 338° |
| 2026-05-07 18:23 | 7.13293 | -73.18719 | 3916 ft | 12 kts | 338° |
| 2026-05-07 18:23 | 7.13387 | -73.18758 | 3917 ft | 16 kts | 338° |
| 2026-05-07 18:24 | 7.13496 | -73.18802 | 3917 ft | 18 kts | 340° |
| 2026-05-07 18:24 | 7.13571 | -73.18847 | 3915 ft | 11 kts | 314° |
| 2026-05-07 18:24 | 7.13627 | -73.18850 | 3914 ft | 2 kts | 63° |
| 2026-05-07 18:24 | 7.13623 | -73.18843 | 3914 ft | 0 kts | 120° |
| 2026-05-07 18:25 | 7.13622 | -73.18842 | 3914 ft | 1 kts | 126° |
| 2026-05-07 18:25 | 7.13589 | -73.18829 | 3915 ft | 12 kts | 165° |
| 2026-05-07 18:25 | 7.13488 | -73.18797 | 3917 ft | 19 kts | 162° |
| 2026-05-07 18:25 | 7.13345 | -73.18739 | 3916 ft | 26 kts | 158° |
| 2026-05-07 18:26 | 7.13190 | -73.18660 | 3917 ft | 9 kts | 112° |
| 2026-05-07 18:26 | 7.13169 | -73.18590 | 3917 ft | 14 kts | 121° |
| 2026-05-07 18:26 | 7.13098 | -73.18551 | 3915 ft | 7 kts | 171° |
| 2026-05-07 18:26 | 7.13020 | -73.18521 | 3913 ft | 17 kts | 158° |
| 2026-05-07 18:27 | 7.12900 | -73.18466 | 3906 ft | 21 kts | 151° |
| 2026-05-07 18:27 | 7.12755 | -73.18408 | 3905 ft | 8 kts | 160° |
| 2026-05-07 18:27 | 7.12729 | -73.18357 | 3904 ft | 13 kts | 98° |
| 2026-05-07 18:27 | 7.12693 | -73.18281 | 3900 ft | 16 kts | 132° |
| 2026-05-07 18:28 | 7.12671 | -73.18166 | 3900 ft | 20 kts | 95° |
| 2026-05-07 18:28 | 7.12667 | -73.18132 | 3896 ft | 5 kts | 90° |
| 2026-05-07 18:28 | 7.12696 | -73.18116 | 3896 ft | 7 kts | 15° |
| 2026-05-07 18:28 | 7.12710 | -73.18112 | 3899 ft | 0 kts | 15° |
| 2026-05-07 18:29 | 7.12713 | -73.18112 | 3898 ft | 0 kts | 14° |